createdAt,value
2019-03-05T00:01:10.026Z,1.23
2019-03-05T00:03:39.454Z,0.80
2019-03-05T00:06:08.862Z,0.80
2019-03-05T00:08:38.504Z,1.07
2019-03-05T00:11:07.851Z,1.07
2019-03-05T00:13:37.286Z,1.23
2019-03-05T00:16:06.736Z,0.87
2019-03-05T00:18:36.427Z,1.23
2019-03-05T00:21:05.943Z,1.23
2019-03-05T00:23:49.353Z,1.07
2019-03-05T00:26:27.538Z,1.50
2019-03-05T00:29:24.478Z,1.50
2019-03-05T00:31:53.830Z,1.57
2019-03-05T00:34:44.981Z,1.10
2019-03-05T00:37:24.234Z,1.37
2019-03-05T00:40:18.382Z,1.30
2019-03-05T00:43:18.154Z,1.10
2019-03-05T00:46:21.066Z,0.70
2019-03-05T00:49:33.184Z,1.50
2019-03-05T00:52:50.475Z,0.80
2019-03-05T00:56:10.680Z,1.37
2019-03-05T00:59:04.459Z,1.17
2019-03-05T01:02:09.797Z,1.20
2019-03-05T01:05:41.354Z,1.57
2019-03-05T01:08:10.713Z,1.57
2019-03-05T01:10:40.009Z,1.17
2019-03-05T01:13:09.763Z,1.20
2019-03-05T01:15:39.270Z,1.60
2019-03-05T01:18:08.643Z,1.37
2019-03-05T01:20:37.986Z,1.70
2019-03-05T01:23:07.356Z,1.43
2019-03-05T01:25:36.693Z,1.07
2019-03-05T01:28:06.404Z,1.13
2019-03-05T01:30:59.985Z,1.17
2019-03-05T01:33:33.143Z,1.00
2019-03-05T01:36:07.425Z,0.70
2019-03-05T01:38:46.654Z,0.90
2019-03-05T01:41:15.988Z,0.83
2019-03-05T01:43:45.321Z,0.90
2019-03-05T01:46:15.000Z,0.90
2019-03-05T01:48:44.383Z,0.80
2019-03-05T01:51:13.867Z,1.00
2019-03-05T01:53:43.223Z,1.00
2019-03-05T01:56:12.996Z,0.90
2019-03-05T01:58:42.343Z,1.50
2019-03-05T02:01:11.689Z,1.10
2019-03-05T02:03:41.062Z,1.00
2019-03-05T02:06:10.458Z,0.83
2019-03-05T02:08:39.783Z,1.23
2019-03-05T02:11:09.684Z,0.80
2019-03-05T02:13:39.054Z,1.03
2019-03-05T02:16:08.771Z,1.03
2019-03-05T02:18:38.103Z,0.90
2019-03-05T02:21:07.459Z,1.00
2019-03-05T02:24:21.911Z,1.00
2019-03-05T02:27:35.783Z,0.90
2019-03-05T02:30:35.356Z,1.23
2019-03-05T02:33:37.987Z,1.23
2019-03-05T02:36:51.561Z,1.30
2019-03-05T02:40:07.964Z,1.13
2019-03-05T02:42:58.851Z,1.17
2019-03-05T02:46:20.815Z,1.20
2019-03-05T02:49:30.549Z,1.20
2019-03-05T02:52:30.877Z,1.00
2019-03-05T02:55:25.600Z,1.00
2019-03-05T02:57:53.299Z,0.90
2019-03-05T03:00:34.570Z,1.07
2019-03-05T03:03:11.934Z,1.23
2019-03-05T03:06:00.632Z,1.43
2019-03-05T03:08:29.992Z,1.03
2019-03-05T03:10:59.478Z,0.90
2019-03-05T03:13:28.831Z,1.00
2019-03-05T03:15:58.735Z,1.13
2019-03-05T03:18:28.077Z,1.37
2019-03-05T03:20:57.408Z,1.23
2019-03-05T03:23:26.766Z,1.53
2019-03-05T03:25:56.371Z,1.10
2019-03-05T03:28:26.434Z,1.47
2019-03-05T03:30:56.026Z,1.33
2019-03-05T03:33:25.384Z,1.80
2019-03-05T03:35:54.782Z,1.13
2019-03-05T03:38:24.121Z,1.70
2019-03-05T03:40:53.408Z,1.50
2019-03-05T03:43:22.780Z,1.80
2019-03-05T03:45:52.357Z,1.50
2019-03-05T03:48:21.731Z,1.70
2019-03-05T03:50:51.089Z,1.73
2019-03-05T03:53:20.534Z,1.17
2019-03-05T03:55:49.861Z,1.47
2019-03-05T03:58:19.494Z,1.93
2019-03-05T04:00:49.023Z,1.43
2019-03-05T04:03:18.379Z,1.30
2019-03-05T04:05:47.691Z,1.27
2019-03-05T04:08:17.059Z,1.20
2019-03-05T04:10:46.554Z,1.20
2019-03-05T04:13:16.045Z,0.87
2019-03-05T04:15:45.374Z,1.30
2019-03-05T04:18:14.846Z,2.07
2019-03-05T04:20:50.511Z,17.33
2019-03-05T04:23:19.879Z,32.13
2019-03-05T04:25:49.217Z,5.87
2019-03-05T04:28:18.550Z,2.13
2019-03-05T04:30:47.920Z,1.50
2019-03-05T04:33:17.422Z,1.90
2019-03-05T04:35:47.122Z,2.20
2019-03-05T04:38:16.485Z,3.03
2019-03-05T04:40:45.919Z,18.17
2019-03-05T04:43:15.236Z,11.03
2019-03-05T04:46:06.571Z,9.43
2019-03-05T04:48:36.459Z,4.03
2019-03-05T04:51:10.063Z,2.90
2019-03-05T04:53:39.387Z,2.83
2019-03-05T04:56:08.905Z,2.43
2019-03-05T04:58:38.515Z,2.87
2019-03-05T05:01:08.610Z,3.17
2019-03-05T05:03:38.033Z,2.70
2019-03-05T05:06:07.617Z,3.40
2019-03-05T05:08:37.261Z,3.10
2019-03-05T05:11:06.664Z,1.90
2019-03-05T05:13:35.988Z,1.70
2019-03-05T05:16:05.449Z,2.07
2019-03-05T05:18:35.479Z,2.33
2019-03-05T05:21:05.061Z,2.60
2019-03-05T05:23:34.461Z,2.80
2019-03-05T05:26:04.004Z,2.40
2019-03-05T05:28:33.484Z,4.30
2019-03-05T05:31:03.696Z,2.17
2019-03-05T05:33:33.103Z,17.73
2019-03-05T05:36:02.461Z,7.70
2019-03-05T05:38:31.801Z,9.47
2019-03-05T05:41:02.463Z,4.23
2019-03-05T05:43:32.327Z,4.40
2019-03-05T05:46:01.914Z,9.63
2019-03-05T05:48:31.381Z,11.50
2019-03-05T05:51:00.832Z,10.50
2019-03-05T05:53:30.177Z,8.03
2019-03-05T05:55:59.777Z,6.83
2019-03-05T05:58:29.321Z,5.13
2019-03-05T06:01:00.671Z,4.50
2019-03-05T06:03:30.103Z,3.03
2019-03-05T06:05:59.789Z,2.87
2019-03-05T06:08:29.251Z,2.63
2019-03-05T06:10:58.710Z,2.70
2019-03-05T06:13:28.241Z,2.90
2019-03-05T06:15:57.768Z,4.40
2019-03-05T06:18:27.319Z,14.47
2019-03-05T06:20:56.709Z,12.87
2019-03-05T06:23:26.473Z,13.43
2019-03-05T06:25:55.807Z,15.87
2019-03-05T06:28:25.182Z,13.53
2019-03-05T06:30:54.494Z,11.03
2019-03-05T06:33:23.855Z,7.10
2019-03-05T06:35:53.538Z,8.10
2019-03-05T06:38:23.031Z,6.77
2019-03-05T06:40:52.260Z,5.47
2019-03-05T06:43:21.655Z,4.70
2019-03-05T06:45:50.971Z,3.70
2019-03-05T06:48:20.647Z,4.33
2019-03-05T06:50:50.134Z,4.97
2019-03-05T06:53:19.650Z,4.10
2019-03-05T06:55:49.019Z,3.80
2019-03-05T06:58:18.678Z,3.73
2019-03-05T07:00:48.154Z,4.50
2019-03-05T07:03:17.984Z,4.23
2019-03-05T07:06:23.469Z,4.53
2019-03-05T07:09:01.348Z,4.40
2019-03-05T07:12:14.033Z,5.20
2019-03-05T07:15:15.532Z,4.30
2019-03-05T07:17:48.894Z,4.80
2019-03-05T07:21:04.708Z,4.77
2019-03-05T07:24:00.369Z,3.93
2019-03-05T07:26:29.803Z,3.83
2019-03-05T07:28:59.471Z,5.90
2019-03-05T07:31:28.851Z,8.83
2019-03-05T07:33:58.166Z,5.70
2019-03-05T07:36:27.759Z,4.77
2019-03-05T07:38:57.432Z,4.10
2019-03-05T07:41:26.985Z,3.00
2019-03-05T07:43:56.841Z,2.70
2019-03-05T07:46:26.398Z,2.03
2019-03-05T07:48:55.725Z,2.27
2019-03-05T07:51:25.155Z,1.90
2019-03-05T07:53:54.690Z,2.73
2019-03-05T07:56:24.244Z,2.10
2019-03-05T07:58:53.606Z,1.60
2019-03-05T08:01:23.584Z,1.73
2019-03-05T08:03:52.917Z,2.20
2019-03-05T08:06:22.352Z,1.90
2019-03-05T08:09:47.050Z,4.87
2019-03-05T08:12:31.602Z,2.17
2019-03-05T08:15:21.858Z,2.20
2019-03-05T08:17:51.406Z,2.87
2019-03-05T08:20:20.848Z,1.17
2019-03-05T08:22:50.269Z,2.30
2019-03-05T08:25:19.707Z,1.20
2019-03-05T08:27:50.726Z,1.50
2019-03-05T08:30:20.254Z,1.27
2019-03-05T08:32:49.615Z,1.50
2019-03-05T08:35:19.375Z,1.40
2019-03-05T08:37:48.738Z,1.20
2019-03-05T08:40:18.095Z,1.43
2019-03-05T08:42:47.519Z,1.70
2019-03-05T08:45:28.519Z,1.17
2019-03-05T08:47:48.500Z,0.50
2019-03-05T08:50:18.014Z,0.73
2019-03-05T08:52:47.397Z,1.13
2019-03-05T08:55:16.990Z,1.00
2019-03-05T08:57:46.704Z,0.97
2019-03-05T09:00:17.821Z,1.20
2019-03-05T09:02:48.975Z,0.73
2019-03-05T09:05:20.691Z,0.97
2019-03-05T09:07:50.492Z,1.00
2019-03-05T09:10:21.343Z,0.97
2019-03-05T09:12:50.743Z,1.00
2019-03-05T09:15:20.095Z,1.60
2019-03-05T09:17:49.461Z,1.30
2019-03-05T09:20:19.512Z,0.90
2019-03-05T09:22:48.942Z,1.10
2019-03-05T09:25:18.600Z,0.90
2019-03-05T09:27:48.080Z,1.10
2019-03-05T09:30:19.037Z,1.00
2019-03-05T09:32:48.849Z,1.10
2019-03-05T09:35:18.422Z,1.53
2019-03-05T09:37:47.768Z,1.00
2019-03-05T09:40:19.462Z,1.17
2019-03-05T09:42:49.549Z,0.90
2019-03-05T09:45:19.934Z,1.30
2019-03-05T09:47:49.502Z,0.80
2019-03-05T09:50:19.039Z,1.10
2019-03-05T09:52:55.020Z,0.97
2019-03-05T09:55:20.636Z,0.87
2019-03-05T09:57:53.656Z,1.40
2019-03-05T10:00:23.943Z,1.20
2019-03-05T10:02:53.631Z,1.00
2019-03-05T10:05:23.124Z,1.00
2019-03-05T10:07:52.526Z,1.40
2019-03-05T10:10:23.878Z,1.00
2019-03-05T10:12:53.671Z,1.03
2019-03-05T10:15:23.143Z,0.90
2019-03-05T10:17:53.119Z,1.23
2019-03-05T10:20:23.034Z,0.97
2019-03-05T10:22:52.771Z,1.07
2019-03-05T10:25:24.230Z,1.03
2019-03-05T10:27:54.373Z,1.10
2019-03-05T10:30:25.615Z,1.00
2019-03-05T10:32:55.637Z,1.10
2019-03-05T10:35:26.798Z,1.00
2019-03-05T10:37:58.139Z,0.80
2019-03-05T10:40:31.007Z,0.93
2019-03-05T10:43:08.525Z,1.27
2019-03-05T10:45:32.138Z,0.80
2019-03-05T10:48:01.907Z,0.90
2019-03-05T10:50:31.474Z,1.07
2019-03-05T10:53:01.318Z,1.77
2019-03-05T10:55:31.231Z,1.10
2019-03-05T10:58:01.350Z,1.07
2019-03-05T11:00:31.797Z,0.93
2019-03-05T11:03:01.422Z,0.80
2019-03-05T11:05:34.306Z,0.87
2019-03-05T11:08:04.198Z,0.90
2019-03-05T11:10:34.258Z,1.10
2019-03-05T11:13:04.203Z,1.13
2019-03-05T11:15:33.593Z,1.27
2019-03-05T11:18:04.373Z,1.07
2019-03-05T11:20:33.839Z,1.00
2019-03-05T11:23:03.309Z,1.00
2019-03-05T11:25:32.899Z,0.80
2019-03-05T11:28:02.388Z,0.63
2019-03-05T11:30:36.264Z,1.23
2019-03-05T11:33:03.883Z,0.70
2019-03-05T11:35:33.870Z,0.83
2019-03-05T11:38:03.503Z,0.70
2019-03-05T11:40:32.997Z,0.70
2019-03-05T11:43:09.625Z,0.67
2019-03-05T11:45:39.820Z,1.37
2019-03-05T11:48:09.336Z,0.70
2019-03-05T11:50:38.894Z,1.00
2019-03-05T11:53:08.493Z,1.00
2019-03-05T11:55:38.128Z,0.90
2019-03-05T11:58:07.945Z,1.17
2019-03-05T12:00:56.576Z,0.83
2019-03-05T12:03:25.918Z,0.50
2019-03-05T12:05:55.324Z,0.90
2019-03-05T12:08:24.720Z,0.70
2019-03-05T12:10:54.387Z,1.13
2019-03-05T12:13:23.838Z,0.73
2019-03-05T12:15:53.258Z,0.70
2019-03-05T12:18:25.256Z,0.50
2019-03-05T12:20:53.912Z,0.37
2019-03-05T12:23:23.520Z,0.50
2019-03-05T12:25:53.055Z,0.60
2019-03-05T12:28:22.404Z,0.73
2019-03-05T12:30:52.172Z,0.83
2019-03-05T12:33:21.575Z,0.63
2019-03-05T12:35:51.126Z,0.80
2019-03-05T12:38:20.546Z,0.70
2019-03-05T12:40:50.526Z,0.70
2019-03-05T12:43:20.209Z,0.50
2019-03-05T12:45:49.962Z,0.60
2019-03-05T12:48:19.458Z,1.10
2019-03-05T12:50:49.282Z,0.67
2019-03-05T12:53:19.312Z,0.60
2019-03-05T12:55:48.787Z,1.27
2019-03-05T12:58:18.196Z,0.80
2019-03-05T13:00:47.669Z,0.60
2019-03-05T13:03:17.249Z,0.80
2019-03-05T13:05:46.694Z,0.93
2019-03-05T13:08:16.305Z,0.83
2019-03-05T13:10:45.957Z,1.23
2019-03-05T13:13:15.663Z,1.00
2019-03-05T13:15:45.119Z,1.20
2019-03-05T13:18:14.535Z,1.20
2019-03-05T13:20:44.068Z,1.67
2019-03-05T13:23:13.441Z,1.87
2019-03-05T13:25:42.824Z,1.27
2019-03-05T13:28:12.187Z,1.10
2019-03-05T13:30:41.813Z,0.90
2019-03-05T13:33:11.300Z,1.47
2019-03-05T13:35:40.870Z,0.83
2019-03-05T13:38:10.686Z,1.00
2019-03-05T13:40:40.752Z,1.30
2019-03-05T13:43:10.616Z,1.60
2019-03-05T13:45:43.930Z,2.63
2019-03-05T13:48:40.863Z,1.93
2019-03-05T13:51:37.395Z,0.80
2019-03-05T13:54:48.494Z,0.70
2019-03-05T13:57:51.465Z,1.00
2019-03-05T14:00:21.376Z,0.93
2019-03-05T14:03:06.272Z,1.53
2019-03-05T14:06:02.837Z,1.40
2019-03-05T14:09:00.014Z,2.33
2019-03-05T14:11:29.512Z,3.07
2019-03-05T14:13:59.741Z,1.73
2019-03-05T14:16:29.893Z,2.20
2019-03-05T14:18:59.518Z,1.40
2019-03-05T14:21:29.307Z,1.87
2019-03-05T14:23:58.977Z,3.23
2019-03-05T14:26:28.908Z,2.77
2019-03-05T14:28:58.420Z,3.93
2019-03-05T14:31:28.012Z,2.97
2019-03-05T14:33:57.755Z,1.80
2019-03-05T14:36:35.310Z,3.20
2019-03-05T14:39:20.867Z,2.53
2019-03-05T14:41:50.772Z,3.70
2019-03-05T14:44:20.807Z,1.70
2019-03-05T14:46:55.914Z,2.00
2019-03-05T14:49:25.929Z,1.40
2019-03-05T14:51:55.760Z,1.60
2019-03-05T14:54:25.689Z,2.83
2019-03-05T14:56:55.192Z,10.20
2019-03-05T14:59:24.701Z,5.60
2019-03-05T15:02:02.340Z,2.30
2019-03-05T15:04:32.323Z,1.30
2019-03-05T15:07:04.642Z,1.97
2019-03-05T15:09:33.455Z,1.20
2019-03-05T15:12:03.081Z,1.13
2019-03-05T15:14:32.537Z,1.17
2019-03-05T15:17:02.486Z,1.50
2019-03-05T15:19:36.801Z,5.97
2019-03-05T15:22:06.307Z,10.90
2019-03-05T15:24:36.066Z,12.90
2019-03-05T15:27:05.443Z,19.47
2019-03-05T15:29:35.021Z,10.07
2019-03-05T15:32:04.771Z,4.67
2019-03-05T15:34:34.247Z,13.93
2019-03-05T15:37:04.220Z,3.90
2019-03-05T15:39:33.756Z,2.63
2019-03-05T15:42:03.655Z,3.30
2019-03-05T15:44:33.210Z,2.50
2019-03-05T15:47:03.161Z,7.03
2019-03-05T15:49:33.045Z,9.23
2019-03-05T15:52:03.802Z,5.47
2019-03-05T15:54:33.647Z,3.73
2019-03-05T15:57:03.440Z,7.10
2019-03-05T15:59:33.225Z,7.67
2019-03-05T16:02:02.874Z,2.30
2019-03-05T16:04:35.911Z,5.10
2019-03-05T16:07:06.813Z,7.43
2019-03-05T16:09:39.324Z,15.43
2019-03-05T16:12:09.476Z,8.53
2019-03-05T16:14:39.374Z,5.00
2019-03-05T16:17:09.046Z,2.67
2019-03-05T16:19:49.062Z,2.73
2019-03-05T16:22:19.648Z,2.70
2019-03-05T16:24:49.815Z,2.60
2019-03-05T16:27:19.974Z,2.30
2019-03-05T16:29:52.026Z,3.33
2019-03-05T16:32:26.745Z,4.03
2019-03-05T16:35:21.616Z,1.83
2019-03-05T16:38:08.784Z,2.33
2019-03-05T16:40:52.546Z,8.30
2019-03-05T16:43:35.526Z,6.30
2019-03-05T16:46:22.486Z,7.50
2019-03-05T16:48:59.518Z,6.57
2019-03-05T16:51:57.033Z,6.23
2019-03-05T16:54:33.461Z,2.90
2019-03-05T16:57:21.986Z,3.73
2019-03-05T17:00:13.674Z,2.50
2019-03-05T17:02:58.320Z,3.20
2019-03-05T17:05:46.976Z,4.03
2019-03-05T17:08:35.489Z,7.80
2019-03-05T17:11:18.815Z,9.33
2019-03-05T17:13:48.344Z,8.63
2019-03-05T17:16:18.136Z,5.33
2019-03-05T17:18:48.153Z,3.60
2019-03-05T17:21:26.866Z,4.10
2019-03-05T17:23:49.442Z,3.30
2019-03-05T17:26:19.384Z,4.80
2019-03-05T17:28:49.217Z,8.67
2019-03-05T17:31:18.819Z,7.43
2019-03-05T17:33:48.772Z,12.43
2019-03-05T17:36:18.308Z,10.27
2019-03-05T17:38:48.251Z,7.13
2019-03-05T17:41:18.386Z,7.00
2019-03-05T17:43:48.174Z,4.17
2019-03-05T17:46:17.905Z,4.40
2019-03-05T17:48:47.621Z,5.73
2019-03-05T17:51:17.848Z,4.17
2019-03-05T17:53:47.692Z,4.30
2019-03-05T17:56:17.974Z,4.00
2019-03-05T17:58:47.574Z,3.43
2019-03-05T18:01:17.440Z,3.07
2019-03-05T18:03:46.979Z,9.73
2019-03-05T18:06:17.004Z,6.43
2019-03-05T18:08:46.797Z,3.40
2019-03-05T18:11:16.449Z,4.80
2019-03-05T18:13:46.419Z,7.80
2019-03-05T18:16:16.098Z,5.20
2019-03-05T18:18:46.041Z,5.33
2019-03-05T18:21:16.237Z,3.80
2019-03-05T18:23:45.776Z,3.80
2019-03-05T18:26:16.511Z,4.90
2019-03-05T18:28:45.999Z,4.70
2019-03-05T18:31:16.080Z,4.47
2019-03-05T18:33:45.730Z,2.03
2019-03-05T18:36:15.875Z,2.53
2019-03-05T18:38:49.460Z,2.70
2019-03-05T18:41:19.436Z,2.67
2019-03-05T18:43:49.422Z,2.23
2019-03-05T18:46:19.227Z,3.90
2019-03-05T18:48:48.981Z,3.13
2019-03-05T18:51:19.069Z,3.90
2019-03-05T18:53:48.903Z,3.70
2019-03-05T18:56:18.545Z,3.33
2019-03-05T18:58:48.558Z,3.13
2019-03-05T19:01:22.365Z,2.43
2019-03-05T19:03:56.924Z,3.20
2019-03-05T19:06:27.978Z,3.07
2019-03-05T19:08:58.045Z,2.50
2019-03-05T19:11:28.005Z,3.40
2019-03-05T19:13:58.175Z,2.90
2019-03-05T19:16:28.267Z,3.87
2019-03-05T19:18:58.107Z,4.50
2019-03-05T19:21:28.398Z,10.53
2019-03-05T19:23:58.364Z,8.23
2019-03-05T19:26:28.079Z,10.80
2019-03-05T19:28:58.117Z,12.60
2019-03-05T19:31:28.107Z,7.97
2019-03-05T19:33:57.914Z,5.97
2019-03-05T19:36:27.648Z,7.17
2019-03-05T19:38:57.339Z,7.87
2019-03-05T19:41:27.571Z,6.80
2019-03-05T19:43:57.683Z,6.30
2019-03-05T19:46:27.774Z,7.13
2019-03-05T19:48:57.802Z,7.37
2019-03-05T19:51:27.953Z,5.70
2019-03-05T19:53:57.598Z,5.70
2019-03-05T19:56:27.552Z,7.83
2019-03-05T19:58:57.717Z,5.80
2019-03-05T20:01:33.890Z,5.00
2019-03-05T20:04:11.449Z,3.30
2019-03-05T20:06:35.437Z,3.50
2019-03-05T20:09:06.320Z,3.20
2019-03-05T20:11:36.510Z,3.30
2019-03-05T20:14:06.644Z,4.80
2019-03-05T20:16:36.682Z,3.80
2019-03-05T20:19:06.795Z,4.43
2019-03-05T20:21:36.736Z,11.53
2019-03-05T20:24:07.313Z,5.07
2019-03-05T20:26:37.002Z,3.60
2019-03-05T20:29:06.948Z,3.27
2019-03-05T20:31:36.608Z,3.17
2019-03-05T20:34:07.169Z,3.90
2019-03-05T20:36:36.842Z,3.20
2019-03-05T20:39:07.646Z,2.50
2019-03-05T20:41:37.283Z,2.27
2019-03-05T20:44:07.058Z,2.17
2019-03-05T20:46:36.837Z,1.93
2019-03-05T20:49:06.463Z,2.20
2019-03-05T20:51:36.248Z,2.70
2019-03-05T20:54:06.025Z,3.40
2019-03-05T20:56:35.971Z,4.73
2019-03-05T20:59:05.913Z,6.10
2019-03-05T21:01:35.394Z,6.50
2019-03-05T21:04:05.581Z,5.53
2019-03-05T21:06:35.952Z,5.50
2019-03-05T21:09:15.266Z,6.47
2019-03-05T21:11:44.823Z,7.63
2019-03-05T21:14:14.628Z,7.50
2019-03-05T21:16:44.380Z,6.80
2019-03-05T21:19:14.667Z,6.23
2019-03-05T21:21:44.562Z,6.50
2019-03-05T21:24:14.153Z,5.57
2019-03-05T21:26:44.211Z,5.90
2019-03-05T21:29:14.298Z,5.73
2019-03-05T21:31:43.822Z,5.93
2019-03-05T21:34:13.761Z,5.30
2019-03-05T21:36:43.823Z,5.27
2019-03-05T21:39:15.996Z,4.70
2019-03-05T21:41:45.726Z,4.80
2019-03-05T21:44:15.384Z,4.70
2019-03-05T21:46:45.154Z,5.73
2019-03-05T21:49:15.099Z,5.60
2019-03-05T21:51:45.072Z,5.93
2019-03-05T21:54:14.731Z,5.77
2019-03-05T21:56:44.486Z,6.53
2019-03-05T21:59:13.965Z,6.33
2019-03-05T22:01:43.444Z,7.83
2019-03-05T22:04:13.243Z,8.03
2019-03-05T22:06:42.755Z,7.53
2019-03-05T22:09:12.191Z,8.00
2019-03-05T22:11:42.222Z,8.03
2019-03-05T22:14:12.149Z,7.57
2019-03-05T22:16:41.935Z,7.13
2019-03-05T22:19:11.785Z,6.60
2019-03-05T22:21:41.299Z,6.90
2019-03-05T22:24:11.298Z,6.57
2019-03-05T22:26:40.850Z,6.20
2019-03-05T22:29:10.683Z,6.00
2019-03-05T22:31:40.115Z,7.03
2019-03-05T22:34:09.529Z,6.57
2019-03-05T22:36:39.072Z,5.87
2019-03-05T22:39:08.593Z,5.87
2019-03-05T22:41:38.411Z,5.97
2019-03-05T22:44:07.958Z,7.33
2019-03-05T22:46:37.571Z,6.80
2019-03-05T22:49:07.277Z,6.50
2019-03-05T22:51:36.728Z,6.60
2019-03-05T22:54:06.202Z,6.43
2019-03-05T22:56:36.043Z,6.70
2019-03-05T22:59:05.587Z,6.13
2019-03-05T23:01:41.182Z,6.77
2019-03-05T23:04:12.421Z,6.60
2019-03-05T23:06:43.021Z,6.83
2019-03-05T23:09:19.300Z,7.77
2019-03-05T23:11:49.040Z,7.90
2019-03-05T23:14:18.489Z,12.17
2019-03-05T23:16:47.939Z,7.33
2019-03-05T23:19:17.328Z,7.53
2019-03-05T23:21:47.290Z,7.57
2019-03-05T23:24:16.777Z,7.13
2019-03-05T23:26:46.502Z,9.30
2019-03-05T23:29:16.840Z,10.40
2019-03-05T23:31:46.464Z,11.33
2019-03-05T23:34:18.469Z,13.40
2019-03-05T23:36:47.395Z,13.00
2019-03-05T23:39:17.884Z,12.60
2019-03-05T23:41:47.581Z,11.77
2019-03-05T23:44:17.302Z,11.27
2019-03-05T23:46:46.760Z,11.07
2019-03-05T23:49:16.522Z,11.77
2019-03-05T23:51:45.898Z,13.90
2019-03-05T23:54:15.367Z,12.83
2019-03-05T23:56:44.718Z,11.77
2019-03-05T23:59:14.085Z,10.03
